Time;durP1;ratioP1;P1;durP2;ratioP2;P2;SDS_P1;SDS_P2;PMS_P1;PMS_P2;Temp;Humidity;BMP_temperature;BMP_pressure;BME280_temperature;BME280_humidity;BME280_pressure;Samples;Min_cycle;Max_cycle;Signal;HPM_P1;HPM_P2
2023/05/24 00:00:31;;;;;;;16.25;4.10;;;;;;;7.07;100.00;102305.94;10432768;28;20385;-71
2023/05/24 00:05:32;;;;;;;36.85;5.05;;;;;;;7.06;100.00;102298.75;10451321;28;20064;-70
2023/05/24 00:10:32;;;;;;;27.27;7.00;;;;;;;7.02;100.00;102289.25;10455245;28;20405;-68
2023/05/24 00:15:33;;;;;;;22.60;4.45;;;;;;;7.03;100.00;102284.63;10458751;28;20063;-70
2023/05/24 00:20:33;;;;;;;31.27;5.35;;;;;;;7.03;100.00;102276.41;10455641;28;20067;-71
2023/05/24 00:25:34;;;;;;;23.13;6.50;;;;;;;7.04;100.00;102267.97;10457106;28;20064;-71
2023/05/24 00:30:35;;;;;;;24.50;4.55;;;;;;;7.03;100.00;102266.31;10454895;28;20092;-71
2023/05/24 00:35:35;;;;;;;25.42;5.55;;;;;;;7.01;100.00;102257.44;10457383;28;20064;-70
2023/05/24 00:40:36;;;;;;;30.45;5.75;;;;;;;7.00;100.00;102255.72;10427265;28;20104;-69
2023/05/24 00:45:36;;;;;;;23.98;5.40;;;;;;;6.99;100.00;102255.94;10413985;28;20164;-69
2023/05/24 00:50:37;;;;;;;22.80;5.03;;;;;;;6.89;100.00;102242.59;10397016;28;20064;-69
2023/05/24 00:55:39;;;;;;;24.35;4.68;;;;;;;6.84;100.00;102251.41;10414431;28;20053;-70
2023/05/24 01:00:39;;;;;;;26.58;5.15;;;;;;;6.79;100.00;102255.75;10411607;28;20048;-69
2023/05/24 01:05:40;;;;;;;18.80;3.50;;;;;;;6.78;100.00;102262.25;10412815;28;20072;-67
2023/05/24 01:10:43;;;;;;;27.77;5.78;;;;;;;6.84;100.00;102261.47;10414284;28;20041;-70
2023/05/24 01:16:00;;;;;;;23.17;4.88;;;;;;;7.05;100.00;102261.47;10412921;28;20033;-70
2023/05/24 01:21:09;;;;;;;20.42;4.68;;;;;;;7.30;100.00;102266.53;10413567;28;20049;-69
2023/05/24 01:26:38;;;;;;;21.60;4.50;;;;;;;7.41;100.00;102257.75;10413057;28;20052;-69
2023/05/24 01:31:38;;;;;;;23.55;4.15;;;;;;;7.61;100.00;102259.81;10357992;28;20472;-70
2023/05/24 01:36:39;;;;;;;20.83;5.97;;;;;;;7.68;100.00;102263.44;10374941;28;20034;-69
2023/05/24 01:42:06;;;;;;;19.48;5.10;;;;;;;7.78;100.00;102258.44;10373278;28;20042;-69
2023/05/24 01:47:30;;;;;;;24.10;4.95;;;;;;;7.81;100.00;102247.06;10401956;28;20049;-69
2023/05/24 01:52:32;;;;;;;25.77;4.85;;;;;;;7.86;100.00;102254.69;10410486;28;20110;-69
2023/05/24 01:57:32;;;;;;;23.75;4.55;;;;;;;7.87;100.00;102254.50;10410049;28;20037;-69
2023/05/24 02:02:33;;;;;;;24.08;6.13;;;;;;;7.82;100.00;102246.00;10395996;28;20033;-69
2023/05/24 02:07:33;;;;;;;23.27;4.05;;;;;;;7.74;100.00;102242.59;10396230;28;20041;-69
2023/05/24 02:12:34;;;;;;;20.27;4.07;;;;;;;7.59;100.00;102231.75;10410470;28;20029;-70
2023/05/24 02:17:35;;;;;;;13.82;4.22;;;;;;;7.50;100.00;102239.25;10338145;28;20406;-69
2023/05/24 02:22:35;;;;;;;16.88;4.38;;;;;;;7.38;100.00;102229.91;10397582;28;20053;-70
2023/05/24 02:27:36;;;;;;;21.92;5.15;;;;;;;7.37;100.00;102229.06;10410656;28;20041;-69
2023/05/24 02:32:36;;;;;;;21.92;5.40;;;;;;;7.46;100.00;102236.09;10395787;28;20025;-69
2023/05/24 02:37:37;;;;;;;25.17;5.93;;;;;;;7.55;100.00;102235.94;10411161;28;20049;-70
2023/05/24 02:42:37;;;;;;;22.25;7.90;;;;;;;7.64;100.00;102240.22;10393409;28;20049;-69
2023/05/24 02:47:38;;;;;;;20.27;5.18;;;;;;;7.73;100.00;102239.00;10412643;28;20041;-70
2023/05/24 02:52:38;;;;;;;21.27;5.60;;;;;;;7.75;100.00;102228.69;10412396;28;20091;-70
2023/05/24 02:57:38;;;;;;;23.77;5.68;;;;;;;7.72;100.00;102237.31;10411217;28;20064;-70
2023/05/24 03:02:39;;;;;;;17.05;4.93;;;;;;;7.74;100.00;102218.75;10394733;28;20037;-69
2023/05/24 03:07:41;;;;;;;25.17;5.88;;;;;;;7.80;100.00;102217.13;10411579;28;20121;-69
2023/05/24 03:12:41;;;;;;;20.90;4.85;;;;;;;7.82;100.00;102221.34;10380640;28;20057;-69
2023/05/24 03:17:42;;;;;;;22.27;4.65;;;;;;;7.70;100.00;102198.28;10417872;28;20030;-70
2023/05/24 03:22:42;;;;;;;19.85;4.55;;;;;;;7.87;100.00;102223.47;10417646;28;20064;-70
2023/05/24 03:27:43;;;;;;;16.85;3.60;;;;;;;7.81;100.00;102216.91;10418810;28;20034;-70
2023/05/24 03:32:43;;;;;;;14.90;3.72;;;;;;;7.63;100.00;102200.16;10417788;28;20037;-70
2023/05/24 03:37:44;;;;;;;28.15;4.28;;;;;;;7.64;100.00;102224.59;10400730;28;20045;-70
2023/05/24 03:42:44;;;;;;;21.45;4.22;;;;;;;7.65;100.00;102214.50;10376785;28;20049;-70
2023/05/24 03:47:45;;;;;;;25.50;5.53;;;;;;;7.74;100.00;102212.44;10375583;28;20049;-70
2023/05/24 03:52:46;;;;;;;21.20;4.45;;;;;;;7.88;100.00;102209.56;10374510;28;20072;-69
2023/05/24 03:57:47;;;;;;;21.20;4.45;;;;;;;8.03;100.00;102211.31;10377286;28;20038;-70
2023/05/24 04:02:47;;;;;;;12.73;3.55;;;;;;;8.11;100.00;102208.38;10371447;28;20415;-70
2023/05/24 04:07:48;;;;;;;16.95;4.15;;;;;;;8.09;100.00;102214.06;10375657;28;20033;-69
2023/05/24 04:12:48;;;;;;;22.73;5.97;;;;;;;8.18;100.00;102211.16;10374857;28;20081;-70
2023/05/24 04:17:53;;;;;;;20.38;3.80;;;;;;;8.40;100.00;102218.19;10374560;28;20060;-70
2023/05/24 04:22:55;;;;;;;22.88;3.88;;;;;;;8.48;100.00;102219.94;10374147;28;20068;-70
2023/05/24 04:27:55;;;;;;;19.60;5.65;;;;;;;8.49;100.00;102235.34;10376191;28;20037;-70
2023/05/24 04:32:56;;;;;;;20.77;3.88;;;;;;;8.55;100.00;102222.69;10374260;28;20410;-70
2023/05/24 04:37:58;;;;;;;16.40;3.10;;;;;;;8.64;100.00;102224.16;10373547;28;20053;-70
2023/05/24 04:42:59;;;;;;;19.63;3.75;;;;;;;8.67;100.00;102224.59;10370907;28;20038;-70
2023/05/24 04:48:00;;;;;;;21.27;3.85;;;;;;;8.63;100.00;102220.59;10333093;28;20035;-71
2023/05/24 04:53:01;;;;;;;22.35;4.38;;;;;;;8.69;100.00;102222.50;10332808;28;20058;-70
2023/05/24 04:58:01;;;;;;;22.48;3.45;;;;;;;8.83;100.00;102239.84;10335213;28;20054;-68
2023/05/24 05:03:02;;;;;;;21.25;3.67;;;;;;;9.07;100.00;102240.28;10355867;28;20049;-71
2023/05/24 05:08:03;;;;;;;23.02;4.13;;;;;;;9.36;100.00;102230.75;10372684;28;20034;-70
2023/05/24 05:13:03;;;;;;;14.75;3.28;;;;;;;9.52;100.00;102232.22;10372702;28;20042;-70
2023/05/24 05:18:03;;;;;;;14.10;3.03;;;;;;;9.68;100.00;102225.44;10373706;28;20030;-70
2023/05/24 05:23:04;;;;;;;15.15;3.28;;;;;;;9.67;100.00;102232.84;10371991;28;20088;-70
2023/05/24 05:28:05;;;;;;;17.50;3.20;;;;;;;9.63;100.00;102238.97;10374889;28;20041;-70
2023/05/24 05:33:05;;;;;;;24.48;3.63;;;;;;;9.57;100.00;102229.69;10374436;28;20162;-70
2023/05/24 05:38:06;;;;;;;21.25;3.00;;;;;;;9.53;100.00;102239.44;10370096;28;20038;-70
2023/05/24 05:43:08;;;;;;;21.15;4.63;;;;;;;9.51;100.00;102241.53;10374440;28;20045;-70
2023/05/24 05:48:08;;;;;;;14.27;3.45;;;;;;;9.63;100.00;102241.72;10422222;28;20033;-70
2023/05/24 05:53:08;;;;;;;22.27;3.50;;;;;;;9.85;100.00;102239.56;10396470;28;20064;-70
2023/05/24 05:58:10;;;;;;;20.75;3.35;;;;;;;10.16;100.00;102244.31;10415117;28;20034;-69
2023/05/24 06:03:11;;;;;;;17.38;3.67;;;;;;;10.23;100.00;102250.66;10413749;28;20030;-70
2023/05/24 06:08:11;;;;;;;14.57;3.45;;;;;;;10.23;100.00;102239.63;10410487;28;20038;-69
2023/05/24 06:13:12;;;;;;;13.52;3.33;;;;;;;10.36;100.00;102244.25;10430604;28;20047;-70
2023/05/24 06:18:14;;;;;;;17.73;2.65;;;;;;;10.62;100.00;102251.50;10435850;28;20040;-70
2023/05/24 06:23:15;;;;;;;19.58;3.85;;;;;;;10.97;100.00;102253.00;10436182;28;20091;-70
2023/05/24 06:28:15;;;;;;;14.75;2.83;;;;;;;11.20;100.00;102238.59;10434818;28;20535;-69
2023/05/24 06:33:16;;;;;;;11.88;3.40;;;;;;;11.20;100.00;102233.09;10454536;28;20064;-71
2023/05/24 06:38:16;;;;;;;13.35;3.63;;;;;;;11.37;100.00;102250.75;10428583;28;20038;-69
2023/05/24 06:43:17;;;;;;;11.82;3.85;;;;;;;11.39;100.00;102254.13;10400178;28;20050;-70
2023/05/24 06:48:17;;;;;;;10.85;3.47;;;;;;;11.48;100.00;102249.16;10416774;28;20038;-70
2023/05/24 06:53:18;;;;;;;16.85;3.13;;;;;;;11.75;100.00;102257.19;10402717;28;20037;-70
2023/05/24 06:58:18;;;;;;;11.93;3.72;;;;;;;11.60;100.00;102249.28;10421626;28;20326;-71
2023/05/24 07:03:20;;;;;;;10.93;2.95;;;;;;;11.81;100.00;102257.09;10420715;28;20417;-70
2023/05/24 07:08:20;;;;;;;13.27;3.28;;;;;;;12.10;100.00;102261.03;10402142;28;20026;-70
2023/05/24 07:13:21;;;;;;;13.50;2.80;;;;;;;12.20;100.00;102260.50;10375719;28;20042;-70
2023/05/24 07:18:21;;;;;;;16.15;2.58;;;;;;;12.40;100.00;102267.69;10376767;28;20229;-71
2023/05/24 07:23:22;;;;;;;13.73;2.83;;;;;;;12.24;100.00;102258.97;10401066;28;20041;-70
2023/05/24 07:28:22;;;;;;;12.60;3.03;;;;;;;12.17;100.00;102273.94;10398186;28;20453;-70
2023/05/24 07:33:23;;;;;;;12.18;3.65;;;;;;;12.15;100.00;102290.72;10378748;28;20076;-70
2023/05/24 07:38:23;;;;;;;19.27;3.22;;;;;;;12.09;100.00;102277.84;10374103;28;20046;-70
2023/05/24 07:43:24;;;;;;;12.27;2.60;;;;;;;12.31;100.00;102279.06;10406491;28;20038;-70
2023/05/24 07:48:24;;;;;;;7.53;2.05;;;;;;;12.98;100.00;102278.16;10397668;28;20521;-69
2023/05/24 07:53:25;;;;;;;8.18;2.35;;;;;;;13.11;100.00;102288.16;10393942;28;20082;-70
2023/05/24 07:58:26;;;;;;;12.43;2.22;;;;;;;13.20;100.00;102267.34;10388281;28;20042;-70
2023/05/24 08:03:27;;;;;;;10.82;2.50;;;;;;;13.29;100.00;102271.50;10374656;28;20095;-70
2023/05/24 08:08:28;;;;;;;10.85;2.53;;;;;;;13.00;100.00;102275.13;10377248;28;20038;-70
2023/05/24 08:13:28;;;;;;;13.20;2.42;;;;;;;12.90;100.00;102281.25;10360947;28;20456;-70
2023/05/24 08:18:29;;;;;;;7.55;1.88;;;;;;;12.67;100.00;102279.22;10355883;28;20031;-70
2023/05/24 08:23:30;;;;;;;9.25;1.98;;;;;;;13.21;100.00;102259.91;10371480;28;20053;-70
2023/05/24 08:28:30;;;;;;;11.07;2.60;;;;;;;13.73;100.00;102262.84;10327632;28;20566;-70
2023/05/24 08:33:31;;;;;;;8.55;2.33;;;;;;;13.33;100.00;102269.09;10352038;28;20044;-70
2023/05/24 08:38:32;;;;;;;15.20;2.50;;;;;;;13.19;100.00;102279.50;10376970;28;20057;-70
2023/05/24 08:43:32;;;;;;;9.35;1.77;;;;;;;13.26;100.00;102284.94;10405810;28;20515;-70
2023/05/24 08:48:35;;;;;;;6.85;1.63;;;;;;;13.52;100.00;102290.03;10393990;28;20231;-70
2023/05/24 08:53:35;;;;;;;13.13;2.83;;;;;;;13.59;100.00;102280.78;10391024;28;20073;-70
2023/05/24 08:58:37;;;;;;;12.02;3.70;;;;;;;13.68;100.00;102282.09;10357894;28;20038;-70
2023/05/24 09:03:38;;;;;;;10.25;2.55;;;;;;;13.78;100.00;102271.25;10378774;28;20037;-69
2023/05/24 09:08:39;;;;;;;6.45;2.28;;;;;;;14.59;100.00;102257.47;10386000;28;20129;-70
2023/05/24 09:13:39;;;;;;;10.23;2.40;;;;;;;15.58;100.00;102266.41;10389675;28;20084;-70
2023/05/24 09:18:43;;;;;;;10.77;2.13;;;;;;;15.66;100.00;102285.41;10404282;28;20038;-70
2023/05/24 09:23:43;;;;;;;7.95;2.08;;;;;;;15.41;100.00;102288.63;10415787;28;20038;-70
2023/05/24 09:28:44;;;;;;;10.82;1.67;;;;;;;15.17;100.00;102287.94;10397155;28;20038;-70
2023/05/24 09:33:46;;;;;;;13.23;3.13;;;;;;;15.03;100.00;102296.59;10376721;28;20041;-70
2023/05/24 09:38:47;;;;;;;10.43;1.70;;;;;;;14.28;100.00;102301.19;10395092;28;20123;-71
2023/05/24 09:43:48;;;;;;;11.60;3.05;;;;;;;13.90;100.00;102308.09;10412743;28;20045;-70
2023/05/24 09:48:58;;;;;;;12.35;2.75;;;;;;;13.68;100.00;102309.78;10396398;28;20119;-70
2023/05/24 09:54:02;;;;;;;12.15;3.00;;;;;;;13.60;100.00;102310.13;10413373;28;20453;-71
2023/05/24 09:59:09;;;;;;;10.27;2.42;;;;;;;14.01;100.00;102305.56;10395587;28;20053;-71
2023/05/24 10:04:09;;;;;;;10.73;1.95;;;;;;;14.44;100.00;102301.50;10410426;28;20048;-71
2023/05/24 10:09:10;;;;;;;14.05;2.10;;;;;;;15.07;100.00;102295.00;10399401;28;20260;-70
2023/05/24 10:14:10;;;;;;;9.95;2.80;;;;;;;15.27;100.00;102288.09;10370209;28;20057;-71
2023/05/24 10:19:11;;;;;;;9.05;2.13;;;;;;;15.43;100.00;102292.81;10354728;28;20049;-70
2023/05/24 10:24:12;;;;;;;10.60;2.10;;;;;;;15.33;100.00;102270.44;10377076;28;20038;-71
2023/05/24 10:29:26;;;;;;;5.25;2.38;;;;;;;14.60;100.00;102306.28;10378314;28;20049;-71
2023/05/24 10:34:29;;;;;;;12.30;2.38;;;;;;;14.21;100.00;102297.69;10418482;28;20041;-71
2023/05/24 10:39:31;;;;;;;8.73;2.65;;;;;;;13.37;100.00;102214.13;10353342;28;20050;-71
2023/05/24 10:44:32;;;;;;;11.95;3.03;;;;;;;13.69;100.00;102317.00;10361638;28;20056;-70
2023/05/24 10:49:32;;;;;;;8.10;3.28;;;;;;;13.48;100.00;102333.09;10378535;28;20379;-71
2023/05/24 10:54:34;;;;;;;13.45;2.50;;;;;;;13.28;100.00;102329.78;10375951;28;20033;-71
2023/05/24 10:59:38;;;;;;;8.88;2.40;;;;;;;13.42;100.00;102323.00;10377961;28;20034;-72
2023/05/24 11:04:42;;;;;;;11.13;3.05;;;;;;;14.11;100.00;102314.09;10379297;28;20046;-71
2023/05/24 11:09:45;;;;;;;13.15;2.35;;;;;;;14.73;100.00;102306.00;10375292;28;20040;-71
2023/05/24 11:14:52;;;;;;;11.73;2.67;;;;;;;15.11;100.00;102301.72;10377346;28;20042;-71
2023/05/24 11:19:53;;;;;;;14.10;1.88;;;;;;;15.48;100.00;102290.16;10390038;28;20037;-71
2023/05/24 11:24:56;;;;;;;6.88;2.28;;;;;;;15.96;100.00;102303.63;10355989;28;20040;-71
2023/05/24 11:29:56;;;;;;;9.25;3.33;;;;;;;15.54;100.00;102308.56;10378688;28;20549;-71
2023/05/24 11:34:57;;;;;;;11.85;2.28;;;;;;;15.48;100.00;102295.69;10407763;28;20056;-71
2023/05/24 11:39:57;;;;;;;6.65;2.15;;;;;;;15.74;100.00;102298.88;10399295;28;20045;-71
2023/05/24 11:44:58;;;;;;;5.35;1.70;;;;;;;16.03;100.00;102309.88;10418992;28;20524;-71
2023/05/24 11:49:58;;;;;;;9.05;2.60;;;;;;;16.32;100.00;102305.81;10419148;28;20041;-71
2023/05/24 11:54:59;;;;;;;6.60;2.08;;;;;;;16.35;100.00;102307.25;10416868;28;20037;-72
2023/05/24 11:59:59;;;;;;;3.83;1.92;;;;;;;16.15;100.00;102310.59;10418514;28;20072;-71
2023/05/24 12:05:08;;;;;;;7.07;2.40;;;;;;;16.05;100.00;102302.94;10398869;28;20053;-71
2023/05/24 12:10:11;;;;;;;8.60;2.25;;;;;;;15.69;100.00;102324.63;10398218;28;20034;-71
2023/05/24 12:15:13;;;;;;;7.88;2.15;;;;;;;15.56;100.00;102321.34;10413498;28;20049;-71
2023/05/24 12:20:14;;;;;;;10.63;3.08;;;;;;;16.78;100.00;102311.06;10416249;28;20103;-71
2023/05/24 12:25:21;;;;;;;8.15;1.90;;;;;;;18.30;100.00;102290.31;10417260;28;20042;-71
2023/05/24 12:30:23;;;;;;;8.20;3.15;;;;;;;17.63;96.29;102279.88;10416741;28;20105;-70
2023/05/24 12:35:23;;;;;;;6.40;2.15;;;;;;;17.15;100.00;102291.72;10398669;28;20049;-71
2023/05/24 12:40:24;;;;;;;9.10;1.98;;;;;;;16.86;100.00;102309.81;10415654;28;20037;-70
2023/05/24 12:45:26;;;;;;;8.95;2.40;;;;;;;16.80;100.00;102313.59;10416351;28;20045;-70
2023/05/24 12:50:27;;;;;;;12.18;2.72;;;;;;;16.71;100.00;102304.88;10414611;28;20034;-71
2023/05/24 12:55:27;;;;;;;9.68;2.33;;;;;;;16.40;100.00;102323.16;10415130;28;20040;-71
2023/05/24 13:00:28;;;;;;;7.38;1.88;;;;;;;15.89;100.00;102271.31;10414222;28;20449;-70
2023/05/24 13:05:29;;;;;;;8.13;2.05;;;;;;;15.71;100.00;102327.16;10387902;28;20113;-71
2023/05/24 13:10:29;;;;;;;13.80;2.85;;;;;;;15.66;100.00;102335.38;10399516;28;20045;-70
2023/05/24 13:15:30;;;;;;;11.55;2.63;;;;;;;15.32;100.00;102340.94;10413507;28;20033;-69
2023/05/24 13:20:31;;;;;;;10.95;3.53;;;;;;;15.29;100.00;102336.69;10414864;28;20048;-71
2023/05/24 13:25:31;;;;;;;8.43;2.75;;;;;;;15.41;100.00;102338.56;10414710;28;20096;-70
2023/05/24 13:30:32;;;;;;;4.25;1.65;;;;;;;15.51;100.00;102328.47;10414523;28;20041;-69
2023/05/24 13:35:32;;;;;;;15.02;3.53;;;;;;;15.87;100.00;102322.69;10413981;28;20056;-70
2023/05/24 13:40:33;;;;;;;13.32;3.58;;;;;;;16.20;100.00;102327.31;10404482;28;20049;-70
2023/05/24 13:45:34;;;;;;;17.77;2.78;;;;;;;16.04;100.00;102309.63;10397542;28;20037;-71
2023/05/24 13:50:35;;;;;;;8.25;2.03;;;;;;;16.00;100.00;102335.34;10396336;28;20600;-71
2023/05/24 13:55:37;;;;;;;6.95;2.08;;;;;;;16.03;100.00;102327.38;10414286;28;20057;-71
2023/05/24 14:00:38;;;;;;;9.73;2.75;;;;;;;15.98;100.00;102326.44;10453074;28;20057;-70
2023/05/24 14:05:39;;;;;;;14.00;2.90;;;;;;;15.71;100.00;102332.69;10419425;28;20041;-71
2023/05/24 14:10:40;;;;;;;10.55;2.88;;;;;;;15.82;100.00;102337.34;10454505;28;20041;-71
2023/05/24 14:15:45;;;;;;;10.45;2.65;;;;;;;15.86;100.00;102334.91;10454604;28;20025;-70
2023/05/24 14:20:46;;;;;;;7.93;1.60;;;;;;;15.78;100.00;102335.31;10453905;28;20359;-70
2023/05/24 14:25:46;;;;;;;8.93;2.40;;;;;;;15.68;100.00;102338.75;10438714;28;20037;-70
2023/05/24 14:30:47;;;;;;;10.45;1.75;;;;;;;15.60;100.00;102341.94;10453635;28;20064;-71
2023/05/24 14:35:49;;;;;;;8.90;2.05;;;;;;;15.28;100.00;102342.53;10453664;28;20436;-74
2023/05/24 14:40:49;;;;;;;9.57;2.92;;;;;;;15.20;100.00;102354.03;10453657;28;20033;-70
2023/05/24 14:45:50;;;;;;;9.40;4.18;;;;;;;15.11;100.00;102350.78;10453684;28;20123;-71
2023/05/24 14:50:51;;;;;;;13.40;2.25;;;;;;;15.68;100.00;102349.84;10453233;28;20093;-70
2023/05/24 14:55:53;;;;;;;12.43;2.28;;;;;;;16.16;100.00;102345.59;10452756;28;20114;-71
2023/05/24 15:00:53;;;;;;;9.85;2.28;;;;;;;17.87;100.00;102336.06;10451105;28;20081;-71
2023/05/24 15:05:54;;;;;;;11.45;3.00;;;;;;;19.06;100.00;102324.31;10451299;28;20404;-71
2023/05/24 15:10:55;;;;;;;7.22;1.70;;;;;;;17.93;96.16;102316.31;10460790;28;20036;-70
2023/05/24 15:15:57;;;;;;;6.47;2.00;;;;;;;17.91;94.99;102314.91;10431648;28;20037;-72
2023/05/24 15:20:58;;;;;;;6.25;1.67;;;;;;;17.35;96.57;102323.66;10401771;28;20128;-71
2023/05/24 15:25:59;;;;;;;5.10;1.48;;;;;;;17.83;95.99;102324.59;10417981;28;20038;-72
2023/05/24 15:31:00;;;;;;;7.43;2.15;;;;;;;17.50;94.25;102320.97;10417798;28;20025;-71
2023/05/24 15:36:03;;;;;;;6.88;1.50;;;;;;;16.47;98.49;102341.28;10419541;28;20064;-70
2023/05/24 15:41:03;;;;;;;8.35;1.73;;;;;;;17.59;94.76;102328.84;10419533;28;20029;-71
2023/05/24 15:46:04;;;;;;;5.53;1.67;;;;;;;18.89;92.20;102318.97;10396606;28;20124;-70
2023/05/24 15:51:06;;;;;;;5.80;1.90;;;;;;;20.82;89.45;102304.19;10380098;28;20129;-71
2023/05/24 15:56:07;;;;;;;6.65;1.55;;;;;;;21.96;83.46;102300.97;10416595;28;20044;-71
2023/05/24 16:01:08;;;;;;;8.32;1.60;;;;;;;22.10;77.43;102283.47;10417576;28;20041;-71
2023/05/24 16:06:08;;;;;;;5.57;1.48;;;;;;;22.29;76.61;102289.97;10417100;28;20029;-72
2023/05/24 16:11:09;;;;;;;6.45;2.45;;;;;;;20.83;76.48;102295.47;10416405;28;20037;-72
2023/05/24 16:16:10;;;;;;;8.52;2.67;;;;;;;19.50;83.19;102307.06;10418237;28;20059;-71
2023/05/24 16:21:11;;;;;;;7.47;2.17;;;;;;;18.65;84.29;102301.88;10382690;28;20053;-71
2023/05/24 16:26:12;;;;;;;9.05;2.45;;;;;;;17.15;92.15;102335.41;10417358;28;20041;-71
2023/05/24 16:31:14;;;;;;;12.75;2.70;;;;;;;16.22;100.00;102355.69;10415951;28;20033;-71
2023/05/24 16:36:15;;;;;;;12.50;2.42;;;;;;;15.52;100.00;102355.16;10417633;28;20048;-70
2023/05/24 16:41:16;;;;;;;10.93;2.28;;;;;;;15.49;100.00;102352.88;10416698;28;20046;-71
2023/05/24 16:46:16;;;;;;;13.43;2.90;;;;;;;15.83;100.00;102347.34;10414845;28;20037;-71
2023/05/24 16:51:17;;;;;;;14.13;3.13;;;;;;;17.15;100.00;102333.47;10381886;28;20084;-71
2023/05/24 16:56:17;;;;;;;9.93;1.77;;;;;;;17.79;88.42;102306.72;10414200;28;20041;-71
2023/05/24 17:01:20;;;;;;;4.63;1.50;;;;;;;16.80;92.59;102317.22;10416044;28;20053;-70
2023/05/24 17:06:21;;;;;;;8.25;1.60;;;;;;;16.38;97.58;102336.47;10414068;28;20045;-70
2023/05/24 17:11:21;;;;;;;11.38;1.77;;;;;;;15.78;95.17;102315.88;10416257;28;20029;-68
2023/05/24 17:16:22;;;;;;;6.60;2.10;;;;;;;15.66;98.16;102336.22;10418843;28;20048;-71
2023/05/24 17:21:26;;;;;;;6.20;2.10;;;;;;;15.73;98.98;102348.03;10452673;28;20037;-70
2023/05/24 17:26:27;;;;;;;10.23;3.15;;;;;;;15.44;99.82;102350.03;10455299;28;20043;-71
2023/05/24 17:31:27;;;;;;;6.88;2.30;;;;;;;14.90;97.37;102332.94;10452989;28;20031;-70
2023/05/24 17:36:32;;;;;;;10.85;2.78;;;;;;;14.58;100.00;102350.03;10415117;28;20029;-71
2023/05/24 17:41:32;;;;;;;8.07;2.80;;;;;;;14.62;100.00;102356.78;10451710;28;20037;-70
2023/05/24 17:46:33;;;;;;;10.98;1.98;;;;;;;14.60;100.00;102372.81;10439069;28;20037;-70
2023/05/24 17:51:37;;;;;;;9.45;3.30;;;;;;;14.50;100.00;102369.78;10452508;28;20044;-70
2023/05/24 17:56:38;;;;;;;8.57;1.95;;;;;;;14.12;100.00;102377.56;10452149;28;20033;-71
2023/05/24 18:01:39;;;;;;;8.13;1.60;;;;;;;13.73;100.00;102379.09;10452845;28;20296;-70
2023/05/24 18:06:40;;;;;;;9.32;2.55;;;;;;;13.61;100.00;102390.16;10447581;28;20079;-70
2023/05/24 18:11:40;;;;;;;8.75;2.17;;;;;;;13.52;100.00;102380.53;10421848;28;20056;-70
2023/05/24 18:16:42;;;;;;;4.70;1.63;;;;;;;13.30;100.00;102380.22;10446354;28;20083;-70
2023/05/24 18:21:43;;;;;;;5.97;2.53;;;;;;;13.03;100.00;102383.31;10451383;28;20055;-70
2023/05/24 18:26:44;;;;;;;6.72;1.80;;;;;;;12.91;100.00;102399.84;10458674;28;20040;-70
2023/05/24 18:31:45;;;;;;;4.45;2.15;;;;;;;12.89;100.00;102390.09;10452033;28;20037;-70
2023/05/24 18:36:46;;;;;;;5.32;1.73;;;;;;;12.88;100.00;102396.72;10399025;28;20037;-71
2023/05/24 18:41:46;;;;;;;11.23;2.17;;;;;;;12.98;100.00;102410.84;10412035;28;20046;-72
2023/05/24 18:46:47;;;;;;;5.68;1.63;;;;;;;12.92;100.00;102400.72;10390739;28;20046;-70
2023/05/24 18:51:47;;;;;;;7.80;3.15;;;;;;;12.93;100.00;102418.97;10418620;28;20037;-72
2023/05/24 18:56:49;;;;;;;11.13;1.70;;;;;;;12.90;100.00;102422.22;10421466;28;20044;-70
2023/05/24 19:01:50;;;;;;;6.95;1.60;;;;;;;12.71;100.00;102418.59;10442832;28;20470;-70
2023/05/24 19:06:52;;;;;;;7.93;1.63;;;;;;;12.54;100.00;102412.84;10403106;28;20065;-71
2023/05/24 19:11:57;;;;;;;5.80;2.25;;;;;;;12.44;100.00;102423.59;10376185;28;20042;-71
2023/05/24 19:16:59;;;;;;;7.20;2.20;;;;;;;12.25;100.00;102423.56;10414110;28;20041;-70
2023/05/24 19:22:00;;;;;;;8.30;2.75;;;;;;;12.17;100.00;102434.91;10421396;28;20552;-72
2023/05/24 19:27:01;;;;;;;5.40;1.80;;;;;;;11.98;100.00;102438.69;10424509;28;20033;-70
2023/05/24 19:32:01;;;;;;;8.48;2.13;;;;;;;11.89;100.00;102447.25;10430537;28;20040;-71
2023/05/24 19:37:03;;;;;;;8.60;2.75;;;;;;;11.75;100.00;102450.31;10442181;28;20044;-71
2023/05/24 19:42:05;;;;;;;8.43;2.88;;;;;;;11.65;100.00;102457.16;10434865;28;20049;-71
2023/05/24 19:47:07;;;;;;;8.32;3.40;;;;;;;11.59;100.00;102449.78;10416479;28;20254;-73
2023/05/24 19:52:08;;;;;;;7.00;2.13;;;;;;;11.52;100.00;102463.63;10416287;28;20061;-73
2023/05/24 19:57:08;;;;;;;11.38;2.97;;;;;;;11.38;100.00;102467.53;10406151;28;20049;-70
2023/05/24 20:02:10;;;;;;;8.88;2.40;;;;;;;11.20;100.00;102475.66;10392929;28;20053;-69
2023/05/24 20:07:11;;;;;;;7.85;2.53;;;;;;;11.14;100.00;102482.06;10390549;28;20041;-70
2023/05/24 20:12:13;;;;;;;6.13;2.30;;;;;;;11.24;100.00;102485.19;10394257;28;20041;-73
2023/05/24 20:17:16;;;;;;;7.28;2.35;;;;;;;10.74;100.00;102410.59;10393605;28;20072;-74
2023/05/24 20:22:17;;;;;;;6.55;2.25;;;;;;;11.20;100.00;102492.22;10384335;28;20129;-73
2023/05/24 20:27:17;;;;;;;12.10;2.35;;;;;;;11.12;100.00;102493.31;10426160;28;20125;-73
2023/05/24 20:32:18;;;;;;;8.30;3.83;;;;;;;11.18;100.00;102492.41;10415455;28;20029;-73
2023/05/24 20:37:20;;;;;;;12.38;2.00;;;;;;;11.32;100.00;102501.50;10414386;28;20034;-73
2023/05/24 20:42:21;;;;;;;5.03;2.33;;;;;;;11.41;100.00;102505.69;10415933;28;20064;-73
2023/05/24 20:47:21;;;;;;;15.80;3.67;;;;;;;11.48;100.00;102516.69;10432625;28;20095;-73
2023/05/24 20:52:22;;;;;;;9.85;2.22;;;;;;;11.48;100.00;102516.69;10438323;28;20036;-71
2023/05/24 20:57:23;;;;;;;7.85;2.38;;;;;;;11.50;100.00;102520.91;10450082;28;20041;-70
2023/05/24 21:02:27;;;;;;;9.02;3.05;;;;;;;11.50;100.00;102520.91;10413918;28;20037;-73
2023/05/24 21:07:28;;;;;;;13.65;2.90;;;;;;;11.37;100.00;102525.63;10385626;28;20078;-74
2023/05/24 21:12:29;;;;;;;10.38;3.10;;;;;;;11.13;100.00;102521.72;10411228;28;20029;-73
2023/05/24 21:17:29;;;;;;;9.25;2.38;;;;;;;10.87;100.00;102537.25;10388623;28;20108;-71
2023/05/24 21:22:31;;;;;;;9.80;2.50;;;;;;;10.61;100.00;102539.03;10406457;28;20029;-69
2023/05/24 21:27:31;;;;;;;12.18;2.83;;;;;;;10.42;100.00;102537.16;10425013;28;20068;-71
2023/05/24 21:32:33;;;;;;;8.02;2.75;;;;;;;10.24;100.00;102541.34;10451252;28;20107;-71
2023/05/24 21:37:34;;;;;;;7.10;2.72;;;;;;;10.11;100.00;102555.09;10453720;28;20037;-71
2023/05/24 21:42:36;;;;;;;11.20;3.47;;;;;;;9.89;100.00;102541.50;10452912;28;20037;-71
2023/05/24 21:47:36;;;;;;;11.70;2.80;;;;;;;9.92;100.00;102550.41;10450547;28;20037;-72
2023/05/24 21:52:38;;;;;;;8.85;3.17;;;;;;;9.87;100.00;102553.78;10445853;28;20044;-71
2023/05/24 21:57:39;;;;;;;16.10;3.70;;;;;;;9.67;100.00;102539.97;10435356;28;20071;-71
2023/05/24 22:02:40;;;;;;;9.88;2.90;;;;;;;9.55;100.00;102561.75;10454408;28;20041;-71
2023/05/24 22:07:40;;;;;;;7.45;3.28;;;;;;;9.43;100.00;102564.22;10452059;28;20036;-71
2023/05/24 22:12:41;;;;;;;12.90;2.75;;;;;;;9.27;100.00;102551.69;10452439;28;20029;-71
2023/05/24 22:17:41;;;;;;;13.35;3.78;;;;;;;9.21;100.00;102563.50;10450955;28;20685;-68
2023/05/24 22:22:47;;;;;;;15.18;3.85;;;;;;;9.08;100.00;102564.28;10450734;28;20570;-71
2023/05/24 22:27:47;;;;;;;12.05;3.40;;;;;;;8.85;100.00;102558.22;10431190;28;20360;-70
2023/05/24 22:32:48;;;;;;;15.55;3.63;;;;;;;8.81;100.00;102567.91;10412258;28;20038;-72
2023/05/24 22:37:49;;;;;;;14.82;4.03;;;;;;;8.75;100.00;102569.56;10376102;28;20045;-71
2023/05/24 22:42:49;;;;;;;15.63;3.40;;;;;;;8.67;100.00;102570.56;10382440;28;20049;-71